createdAt,value
2023-11-18T00:00:14.415Z,71.40
2023-11-18T00:02:43.758Z,71.30
2023-11-18T00:05:11.748Z,71.40
2023-11-18T00:07:39.641Z,71.30
2023-11-18T00:10:09.520Z,71.40
2023-11-18T00:12:37.390Z,71.40
2023-11-18T00:15:06.326Z,71.30
2023-11-18T00:17:35.530Z,71.40
2023-11-18T00:20:10.093Z,71.50
2023-11-18T00:22:37.965Z,71.40
2023-11-18T00:25:07.720Z,71.50
2023-11-18T00:27:37.073Z,71.50
2023-11-18T00:30:09.185Z,71.40
2023-11-18T00:32:38.538Z,71.50
2023-11-18T00:35:07.460Z,71.50
2023-11-18T00:37:35.371Z,71.50
2023-11-18T00:40:04.386Z,71.50
2023-11-18T00:42:32.149Z,71.50
2023-11-18T00:44:59.939Z,71.40
2023-11-18T00:47:29.561Z,71.60
2023-11-18T00:49:58.839Z,71.60
2023-11-18T00:52:26.681Z,71.60
2023-11-18T00:54:54.493Z,71.60
2023-11-18T00:57:22.287Z,71.60
2023-11-18T00:59:50.982Z,71.60
2023-11-18T01:02:19.239Z,71.70
2023-11-18T01:04:48.123Z,71.60
2023-11-18T01:07:18.009Z,71.70
2023-11-18T01:09:46.544Z,71.60
2023-11-18T01:12:14.443Z,71.80
2023-11-18T01:14:42.986Z,71.60
2023-11-18T01:17:11.142Z,71.70
2023-11-18T01:19:39.445Z,71.60
2023-11-18T01:22:07.631Z,71.60
2023-11-18T01:24:36.974Z,71.70
2023-11-18T01:27:05.327Z,71.80
2023-11-18T01:29:34.045Z,71.70
2023-11-18T01:32:01.935Z,71.70
2023-11-18T01:34:29.874Z,71.80
2023-11-18T01:36:58.389Z,71.70
2023-11-18T01:39:27.692Z,71.80
2023-11-18T01:42:02.251Z,71.70
2023-11-18T01:44:31.543Z,71.80
2023-11-18T01:47:00.525Z,71.80
2023-11-18T01:49:29.746Z,71.80
2023-11-18T01:51:58.319Z,71.80
2023-11-18T01:54:26.290Z,71.80
2023-11-18T01:56:56.126Z,71.80
2023-11-18T01:59:23.982Z,71.80
2023-11-18T02:01:54.604Z,71.80
2023-11-18T02:04:23.444Z,71.90
2023-11-18T02:06:51.782Z,71.90
2023-11-18T02:09:20.355Z,71.80
2023-11-18T02:11:58.460Z,71.80
2023-11-18T02:14:30.243Z,71.90
2023-11-18T02:17:01.138Z,71.90
2023-11-18T02:19:31.056Z,71.90
2023-11-18T02:21:59.941Z,71.90
2023-11-18T02:24:34.248Z,71.90
2023-11-18T02:27:03.431Z,72.00
2023-11-18T02:29:36.584Z,71.90
2023-11-18T02:32:11.546Z,71.90
2023-11-18T02:34:46.699Z,71.90
2023-11-18T02:37:14.990Z,72.00
2023-11-18T02:39:45.465Z,71.90
2023-11-18T02:42:15.301Z,71.80
2023-11-18T02:44:44.682Z,72.00
2023-11-18T02:47:13.223Z,71.90
2023-11-18T02:49:41.880Z,72.00
2023-11-18T02:52:10.883Z,72.00
2023-11-18T02:54:38.645Z,72.00
2023-11-18T02:57:06.784Z,72.00
2023-11-18T02:59:35.894Z,72.00
2023-11-18T03:02:03.766Z,72.10
2023-11-18T03:04:31.583Z,72.10
2023-11-18T03:07:00.997Z,72.10
2023-11-18T03:09:28.863Z,72.00
2023-11-18T03:11:56.789Z,72.10
2023-11-18T03:14:24.566Z,72.10
2023-11-18T03:16:56.783Z,72.00
2023-11-18T03:19:24.601Z,72.10
2023-11-18T03:21:54.191Z,72.00
2023-11-18T03:24:21.978Z,72.00
2023-11-18T03:26:50.176Z,72.00
2023-11-18T03:29:18.333Z,72.10
2023-11-18T03:31:49.390Z,72.10
2023-11-18T03:34:20.805Z,72.10
2023-11-18T03:36:48.906Z,72.10
2023-11-18T03:39:16.724Z,72.10
2023-11-18T03:41:45.438Z,72.20
2023-11-18T03:44:14.119Z,72.10
2023-11-18T03:46:42.132Z,72.20
2023-11-18T03:49:09.892Z,72.20
2023-11-18T03:51:39.027Z,72.10
2023-11-18T03:54:09.530Z,72.10
2023-11-18T03:56:37.313Z,72.10
2023-11-18T03:59:05.905Z,72.10
2023-11-18T04:01:33.974Z,72.20
2023-11-18T04:04:02.014Z,72.10
2023-11-18T04:06:29.905Z,72.20
2023-11-18T04:08:59.867Z,72.30
2023-11-18T04:11:27.642Z,72.20
2023-11-18T04:13:56.299Z,72.30
2023-11-18T04:16:24.348Z,72.20
2023-11-18T04:18:52.174Z,72.30
2023-11-18T04:21:19.967Z,72.20
2023-11-18T04:23:48.256Z,72.30
2023-11-18T04:26:17.355Z,72.20
2023-11-18T04:28:45.128Z,72.30
2023-11-18T04:31:13.233Z,72.20
2023-11-18T04:33:41.456Z,72.20
2023-11-18T04:36:11.766Z,72.30
2023-11-18T04:38:39.514Z,72.30
2023-11-18T04:41:08.009Z,72.40
2023-11-18T04:43:42.764Z,72.40
2023-11-18T04:46:13.597Z,72.40
2023-11-18T04:48:43.183Z,72.40
2023-11-18T04:51:12.710Z,72.30
2023-11-18T04:53:41.291Z,72.30
2023-11-18T04:56:11.341Z,72.30
2023-11-18T04:58:41.440Z,72.30
2023-11-18T05:01:10.054Z,72.30
2023-11-18T05:03:38.430Z,72.30
2023-11-18T05:06:06.848Z,72.40
2023-11-18T05:08:35.025Z,72.40
2023-11-18T05:11:03.021Z,72.30
2023-11-18T05:13:30.882Z,72.30
2023-11-18T05:16:00.010Z,72.30
2023-11-18T05:18:30.820Z,72.20
2023-11-18T05:20:59.354Z,72.10
2023-11-18T05:23:27.118Z,72.10
2023-11-18T05:25:56.322Z,72.10
2023-11-18T05:28:25.113Z,72.00
2023-11-18T05:30:53.463Z,72.00
2023-11-18T05:33:22.626Z,71.90
2023-11-18T05:35:50.773Z,71.90
2023-11-18T05:38:19.991Z,71.90
2023-11-18T05:40:56.768Z,71.90
2023-11-18T05:43:26.925Z,71.80
2023-11-18T05:46:15.555Z,71.70
2023-11-18T05:48:45.461Z,71.70
2023-11-18T05:51:13.739Z,71.60
2023-11-18T05:53:45.016Z,71.60
2023-11-18T05:56:12.790Z,72.00
2023-11-18T05:58:40.771Z,71.70
2023-11-18T06:01:09.596Z,72.50
2023-11-18T06:03:39.512Z,71.60
2023-11-18T06:06:10.702Z,71.60
2023-11-18T06:08:41.996Z,71.60
2023-11-18T06:11:14.758Z,71.60
2023-11-18T06:13:47.604Z,71.50
2023-11-18T06:16:16.365Z,71.50
2023-11-18T06:18:46.182Z,71.50
2023-11-18T06:21:16.537Z,71.40
2023-11-18T06:23:45.875Z,71.40
2023-11-18T06:26:14.047Z,71.30
2023-11-18T06:28:42.714Z,71.30
2023-11-18T06:31:10.736Z,71.30
2023-11-18T06:33:41.033Z,71.20
2023-11-18T06:36:09.625Z,71.20
2023-11-18T06:38:39.043Z,71.20
2023-11-18T06:41:09.589Z,71.20
2023-11-18T06:43:52.513Z,71.20
2023-11-18T06:46:23.029Z,71.10
2023-11-18T06:48:51.209Z,71.10
2023-11-18T06:51:18.982Z,71.00
2023-11-18T06:53:48.083Z,71.10
2023-11-18T06:56:16.957Z,71.00
2023-11-18T06:58:45.194Z,71.00
2023-11-18T07:01:15.840Z,71.00
2023-11-18T07:03:44.736Z,71.00
2023-11-18T07:06:15.228Z,70.90
2023-11-18T07:08:43.040Z,70.90
2023-11-18T07:11:12.139Z,70.90
2023-11-18T07:13:40.021Z,70.90
2023-11-18T07:16:10.105Z,70.80
2023-11-18T07:18:37.988Z,70.80
2023-11-18T07:21:06.864Z,70.80
2023-11-18T07:23:35.050Z,70.80
2023-11-18T07:26:04.826Z,70.70
2023-11-18T07:28:34.096Z,70.70
2023-11-18T07:31:06.070Z,70.70
2023-11-18T07:33:34.535Z,70.60
2023-11-18T07:36:03.992Z,70.60
2023-11-18T07:38:33.155Z,70.60
2023-11-18T07:41:03.685Z,70.60
2023-11-18T07:43:31.710Z,70.60
2023-11-18T07:46:01.003Z,70.80
2023-11-18T07:48:29.156Z,71.40
2023-11-18T07:50:58.118Z,71.80
2023-11-18T07:53:26.700Z,72.10
2023-11-18T07:55:54.502Z,72.10
2023-11-18T07:58:24.156Z,72.00
2023-11-18T08:00:52.091Z,71.90
2023-11-18T08:03:21.433Z,71.80
2023-11-18T08:05:49.836Z,71.70
2023-11-18T08:08:18.258Z,71.60
2023-11-18T08:10:46.414Z,71.40
2023-11-18T08:13:14.355Z,71.20
2023-11-18T08:15:46.314Z,71.10
2023-11-18T08:18:14.632Z,70.90
2023-11-18T08:20:45.265Z,70.70
2023-11-18T08:23:13.064Z,71.40
2023-11-18T08:25:41.673Z,70.40
2023-11-18T08:28:09.902Z,70.30
2023-11-18T08:30:40.316Z,70.20
2023-11-18T08:33:10.200Z,70.10
2023-11-18T08:35:38.150Z,70.10
2023-11-18T08:38:08.573Z,70.00
2023-11-18T08:40:37.222Z,70.00
2023-11-18T08:43:06.475Z,70.00
2023-11-18T08:45:35.663Z,70.00
2023-11-18T08:48:08.138Z,70.00
2023-11-18T08:50:37.281Z,70.80
2023-11-18T08:53:06.622Z,70.10
2023-11-18T08:55:43.808Z,70.20
2023-11-18T08:58:23.800Z,70.20
2023-11-18T09:00:55.828Z,70.20
2023-11-18T09:03:29.976Z,70.20
2023-11-18T09:05:59.703Z,70.10
2023-11-18T09:08:30.408Z,70.00
2023-11-18T09:11:01.149Z,70.00
2023-11-18T09:13:30.734Z,70.00
2023-11-18T09:15:59.265Z,69.80
2023-11-18T09:18:28.489Z,69.70
2023-11-18T09:20:57.617Z,69.70
2023-11-18T09:23:26.612Z,69.70
2023-11-18T09:25:55.888Z,69.80
2023-11-18T09:28:26.479Z,69.90
2023-11-18T09:30:55.428Z,69.90
2023-11-18T09:33:33.735Z,69.90
2023-11-18T09:36:02.768Z,70.00
2023-11-18T09:38:30.966Z,70.00
2023-11-18T09:41:03.284Z,70.00
2023-11-18T09:43:37.390Z,70.00
2023-11-18T09:46:13.553Z,69.90
2023-11-18T09:48:48.035Z,69.70
2023-11-18T09:51:21.999Z,69.60
2023-11-18T09:53:53.318Z,69.50
2023-11-18T09:56:35.325Z,69.30
2023-11-18T09:59:16.465Z,69.40
2023-11-18T10:01:47.427Z,69.30
2023-11-18T10:04:18.894Z,69.20
2023-11-18T10:06:48.165Z,69.10
2023-11-18T10:09:27.020Z,69.00
2023-11-18T10:12:01.336Z,69.00
2023-11-18T10:14:30.912Z,69.00
2023-11-18T10:16:58.875Z,69.10
2023-11-18T10:19:27.061Z,69.30
2023-11-18T10:21:57.791Z,69.30
2023-11-18T10:24:26.177Z,69.30
2023-11-18T10:26:58.168Z,69.70
2023-11-18T10:29:28.882Z,69.20
2023-11-18T10:32:10.465Z,69.20
2023-11-18T10:34:38.698Z,69.20
2023-11-18T10:37:07.693Z,69.20
2023-11-18T10:39:36.931Z,69.20
2023-11-18T10:42:05.431Z,69.20
2023-11-18T10:44:33.290Z,69.20
2023-11-18T10:47:02.474Z,69.20
2023-11-18T10:49:37.715Z,69.30
2023-11-18T10:52:09.529Z,69.30
2023-11-18T10:54:38.313Z,69.40
2023-11-18T10:57:08.731Z,69.30
2023-11-18T10:59:37.840Z,69.40
2023-11-18T11:02:22.549Z,69.40
2023-11-18T11:04:51.805Z,69.50
2023-11-18T11:07:24.723Z,69.40
2023-11-18T11:09:57.461Z,69.40
2023-11-18T11:12:27.732Z,69.40
2023-11-18T11:15:01.691Z,69.50
2023-11-18T11:17:32.138Z,69.50
2023-11-18T11:20:18.521Z,69.50
2023-11-18T11:22:59.686Z,69.50
2023-11-18T11:25:36.159Z,69.40
2023-11-18T11:28:14.778Z,69.40
2023-11-18T11:30:46.615Z,69.60
2023-11-18T11:33:28.818Z,69.70
2023-11-18T11:36:01.345Z,70.40
2023-11-18T11:38:30.095Z,70.90
2023-11-18T11:41:01.792Z,71.30
2023-11-18T11:43:31.186Z,72.50
2023-11-18T11:45:59.147Z,72.00
2023-11-18T11:48:29.160Z,72.30
2023-11-18T11:51:15.113Z,72.60
2023-11-18T11:53:49.679Z,73.00
2023-11-18T11:56:22.164Z,73.30
2023-11-18T11:58:54.179Z,73.70
2023-11-18T12:01:31.120Z,73.90
2023-11-18T12:03:59.870Z,74.00
2023-11-18T12:06:29.933Z,74.00
2023-11-18T12:08:59.446Z,74.00
2023-11-18T12:11:29.101Z,74.10
2023-11-18T12:14:10.987Z,74.10
2023-11-18T12:17:01.985Z,74.10
2023-11-18T12:19:37.832Z,74.10
2023-11-18T12:22:14.001Z,74.00
2023-11-18T12:24:42.738Z,74.00
2023-11-18T12:27:14.174Z,74.00
2023-11-18T12:29:45.573Z,73.90
2023-11-18T12:32:17.864Z,73.70
2023-11-18T12:34:55.319Z,73.60
2023-11-18T12:37:58.840Z,73.70
2023-11-18T12:40:53.993Z,73.60
2023-11-18T12:43:39.419Z,73.50
2023-11-18T12:46:45.323Z,73.50
2023-11-18T12:49:17.144Z,73.30
2023-11-18T12:51:46.530Z,73.30
2023-11-18T12:54:17.060Z,73.20
2023-11-18T12:56:49.021Z,73.10
2023-11-18T12:59:18.750Z,73.10
2023-11-18T13:01:52.688Z,72.90
2023-11-18T13:04:21.597Z,72.90
2023-11-18T13:06:52.066Z,72.90
2023-11-18T13:09:27.232Z,72.80
2023-11-18T13:11:59.218Z,72.80
2023-11-18T13:14:31.168Z,72.70
2023-11-18T13:17:01.491Z,72.60
2023-11-18T13:19:29.987Z,72.50
2023-11-18T13:22:01.015Z,72.50
2023-11-18T13:24:30.628Z,72.40
2023-11-18T13:26:59.817Z,72.40
2023-11-18T13:29:28.074Z,72.40
2023-11-18T13:31:57.599Z,72.40
2023-11-18T13:34:25.617Z,72.30
2023-11-18T13:36:53.528Z,72.40
2023-11-18T13:39:22.162Z,72.30
2023-11-18T13:41:52.485Z,72.20
2023-11-18T13:44:36.249Z,72.20
2023-11-18T13:47:06.403Z,72.10
2023-11-18T13:49:35.570Z,72.10
2023-11-18T13:52:04.133Z,72.00
2023-11-18T13:54:32.629Z,72.00
2023-11-18T13:57:01.892Z,71.90
2023-11-18T13:59:29.810Z,71.80
2023-11-18T14:01:58.709Z,71.80
2023-11-18T14:04:27.215Z,71.70
2023-11-18T14:06:55.257Z,71.70
2023-11-18T14:09:25.990Z,71.60
2023-11-18T14:11:56.113Z,71.60
2023-11-18T14:14:28.477Z,71.60
2023-11-18T14:16:58.793Z,71.50
2023-11-18T14:19:26.767Z,71.50
2023-11-18T14:21:54.681Z,71.40
2023-11-18T14:24:24.052Z,71.40
2023-11-18T14:26:52.323Z,71.30
2023-11-18T14:29:20.568Z,71.20
2023-11-18T14:31:49.773Z,71.30
2023-11-18T14:34:17.729Z,71.10
2023-11-18T14:36:45.828Z,71.10
2023-11-18T14:39:16.461Z,71.10
2023-11-18T14:41:44.689Z,71.00
2023-11-18T14:44:12.623Z,71.00
2023-11-18T14:46:42.137Z,70.90
2023-11-18T14:49:11.604Z,70.90
2023-11-18T14:51:39.586Z,70.90
2023-11-18T14:54:07.866Z,70.80
2023-11-18T14:56:36.276Z,70.80
2023-11-18T14:59:06.668Z,70.80
2023-11-18T15:01:34.892Z,70.80
2023-11-18T15:04:06.615Z,70.80
2023-11-18T15:06:35.901Z,70.70
2023-11-18T15:09:04.728Z,70.70
2023-11-18T15:11:35.024Z,70.70
2023-11-18T15:14:04.134Z,70.60
2023-11-18T15:16:31.985Z,70.60
2023-11-18T15:18:59.823Z,70.50
2023-11-18T15:21:30.652Z,70.50
2023-11-18T15:24:01.848Z,70.60
2023-11-18T15:26:32.083Z,70.50
2023-11-18T15:29:00.272Z,70.50
2023-11-18T15:31:30.407Z,70.50
2023-11-18T15:33:58.905Z,70.40
2023-11-18T15:36:26.976Z,70.40
2023-11-18T15:38:54.758Z,70.30
2023-11-18T15:41:24.154Z,70.30
2023-11-18T15:43:52.020Z,70.30
2023-11-18T15:46:19.838Z,70.20
2023-11-18T15:48:48.184Z,70.20
2023-11-18T15:51:17.107Z,70.30
2023-11-18T15:53:44.970Z,70.20
2023-11-18T15:56:12.882Z,70.20
2023-11-18T15:58:42.171Z,70.20
2023-11-18T16:01:10.913Z,70.10
2023-11-18T16:03:38.839Z,70.20
2023-11-18T16:06:07.550Z,70.10
2023-11-18T16:08:37.359Z,70.10
2023-11-18T16:11:06.170Z,70.10
2023-11-18T16:13:35.279Z,70.00
2023-11-18T16:16:04.889Z,70.00
2023-11-18T16:18:32.676Z,70.00
2023-11-18T16:21:03.024Z,70.00
2023-11-18T16:23:35.877Z,70.00
2023-11-18T16:26:03.829Z,70.00
2023-11-18T16:28:31.722Z,70.00
2023-11-18T16:31:00.788Z,70.00
2023-11-18T16:33:30.980Z,70.00
2023-11-18T16:35:59.912Z,69.90
2023-11-18T16:38:27.782Z,69.90
2023-11-18T16:40:55.653Z,69.90
2023-11-18T16:43:23.466Z,69.80
2023-11-18T16:45:52.299Z,69.80
2023-11-18T16:48:22.100Z,69.80
2023-11-18T16:50:51.313Z,69.70
2023-11-18T16:53:19.182Z,69.70
2023-11-18T16:55:47.119Z,69.80
2023-11-18T16:58:14.920Z,69.70
2023-11-18T17:00:44.457Z,69.70
2023-11-18T17:03:13.402Z,69.70
2023-11-18T17:05:41.406Z,69.60
2023-11-18T17:08:13.459Z,69.60
2023-11-18T17:10:41.594Z,69.60
2023-11-18T17:13:09.782Z,69.60
2023-11-18T17:15:37.625Z,69.80
2023-11-18T17:18:07.243Z,69.60
2023-11-18T17:20:35.076Z,69.60
2023-11-18T17:23:03.478Z,69.60
2023-11-18T17:25:32.812Z,69.50
2023-11-18T17:28:01.153Z,69.50
2023-11-18T17:30:35.441Z,69.50
2023-11-18T17:33:03.649Z,69.50
2023-11-18T17:35:31.911Z,69.50
2023-11-18T17:37:59.822Z,69.50
2023-11-18T17:40:27.602Z,69.50
2023-11-18T17:42:56.681Z,69.40
2023-11-18T17:45:24.973Z,69.40
2023-11-18T17:47:52.985Z,69.40
2023-11-18T17:50:20.784Z,69.40
2023-11-18T17:52:48.919Z,69.40
2023-11-18T17:55:16.849Z,69.40
2023-11-18T17:57:45.524Z,69.40
2023-11-18T18:00:21.251Z,69.40
2023-11-18T18:02:49.874Z,69.40
2023-11-18T18:05:18.116Z,69.40
2023-11-18T18:07:45.979Z,69.40
2023-11-18T18:10:13.916Z,69.40
2023-11-18T18:12:44.881Z,69.30
2023-11-18T18:15:15.896Z,69.30
2023-11-18T18:17:44.331Z,69.30
2023-11-18T18:20:14.561Z,69.30
2023-11-18T18:22:43.436Z,70.10
2023-11-18T18:25:11.376Z,69.30
2023-11-18T18:27:39.231Z,69.30
2023-11-18T18:30:08.397Z,69.30
2023-11-18T18:32:37.591Z,69.30
2023-11-18T18:35:06.870Z,69.30
2023-11-18T18:37:34.659Z,69.20
2023-11-18T18:40:04.452Z,69.20
2023-11-18T18:42:33.104Z,69.20
2023-11-18T18:45:00.861Z,69.20
2023-11-18T18:47:30.619Z,69.20
2023-11-18T18:50:00.257Z,69.20
2023-11-18T18:52:28.157Z,69.20
2023-11-18T18:54:56.212Z,69.20
2023-11-18T18:57:25.090Z,69.20
2023-11-18T18:59:52.870Z,69.20
2023-11-18T19:02:20.699Z,69.10
2023-11-18T19:04:49.963Z,69.10
2023-11-18T19:07:22.047Z,69.10
2023-11-18T19:09:50.394Z,69.10
2023-11-18T19:12:18.173Z,69.10
2023-11-18T19:14:45.938Z,69.10
2023-11-18T19:17:14.630Z,69.10
2023-11-18T19:19:42.587Z,69.10
2023-11-18T19:22:10.362Z,69.00
2023-11-18T19:24:39.667Z,69.10
2023-11-18T19:27:11.956Z,69.10
2023-11-18T19:29:42.124Z,69.00
2023-11-18T19:32:11.828Z,69.00
2023-11-18T19:34:39.618Z,69.00
2023-11-18T19:37:10.780Z,69.00
2023-11-18T19:39:41.696Z,69.00
2023-11-18T19:42:09.988Z,69.00
2023-11-18T19:44:38.074Z,69.10
2023-11-18T19:47:07.771Z,69.20
2023-11-18T19:49:35.983Z,69.20
2023-11-18T19:52:04.585Z,69.30
2023-11-18T19:54:32.733Z,69.40
2023-11-18T19:57:01.934Z,69.40
2023-11-18T19:59:30.536Z,69.40
2023-11-18T20:01:59.508Z,69.50
2023-11-18T20:04:27.418Z,69.50
2023-11-18T20:06:55.225Z,69.60
2023-11-18T20:09:23.200Z,69.70
2023-11-18T20:11:51.280Z,69.70
2023-11-18T20:14:21.011Z,69.70
2023-11-18T20:16:49.144Z,69.80
2023-11-18T20:19:17.205Z,69.80
2023-11-18T20:21:44.980Z,69.80
2023-11-18T20:24:12.714Z,69.80
2023-11-18T20:26:40.518Z,69.80
2023-11-18T20:29:08.399Z,69.80
2023-11-18T20:31:37.608Z,69.90
2023-11-18T20:34:05.658Z,69.90
2023-11-18T20:36:34.013Z,69.90
2023-11-18T20:39:01.751Z,69.90
2023-11-18T20:41:29.697Z,70.00
2023-11-18T20:43:57.572Z,70.00
2023-11-18T20:46:26.345Z,70.00
2023-11-18T20:48:55.488Z,70.00
2023-11-18T20:51:23.436Z,70.00
2023-11-18T20:53:51.643Z,70.00
2023-11-18T20:56:21.792Z,70.00
2023-11-18T20:58:51.320Z,70.10
2023-11-18T21:01:19.328Z,70.10
2023-11-18T21:03:48.216Z,70.10
2023-11-18T21:06:21.686Z,70.20
2023-11-18T21:08:50.209Z,70.20
2023-11-18T21:11:18.023Z,70.20
2023-11-18T21:13:45.792Z,70.20
2023-11-18T21:16:14.287Z,70.30
2023-11-18T21:18:42.728Z,70.30
2023-11-18T21:21:12.503Z,70.30
2023-11-18T21:23:41.952Z,70.30
2023-11-18T21:26:09.770Z,70.30
2023-11-18T21:28:39.095Z,70.30
2023-11-18T21:31:08.252Z,70.30
2023-11-18T21:33:38.439Z,70.30
2023-11-18T21:36:07.207Z,71.10
2023-11-18T21:38:35.204Z,70.20
2023-11-18T21:41:04.434Z,70.20
2023-11-18T21:43:32.262Z,70.30
2023-11-18T21:46:00.064Z,70.30
2023-11-18T21:48:28.014Z,70.10
2023-11-18T21:50:55.786Z,70.20
2023-11-18T21:53:24.353Z,70.20
2023-11-18T21:55:55.380Z,70.20
2023-11-18T21:58:25.175Z,70.30
2023-11-18T22:00:53.141Z,70.30
2023-11-18T22:03:21.132Z,70.30
2023-11-18T22:05:51.605Z,70.30
2023-11-18T22:08:22.659Z,70.30
2023-11-18T22:10:51.590Z,70.40
2023-11-18T22:13:19.474Z,70.40
2023-11-18T22:15:51.432Z,70.40
2023-11-18T22:18:19.191Z,70.40
2023-11-18T22:20:46.973Z,70.40
2023-11-18T22:23:16.168Z,70.40
2023-11-18T22:25:44.993Z,70.40
2023-11-18T22:28:12.913Z,70.90
2023-11-18T22:30:40.662Z,70.50
2023-11-18T22:33:09.853Z,70.50
2023-11-18T22:35:38.720Z,70.50
2023-11-18T22:38:06.671Z,70.50
2023-11-18T22:40:34.452Z,70.50
2023-11-18T22:43:02.215Z,70.50
2023-11-18T22:45:30.083Z,70.50
2023-11-18T22:47:57.637Z,70.50
2023-11-18T22:50:26.880Z,70.60
2023-11-18T22:52:58.503Z,70.50
2023-11-18T22:55:26.445Z,70.60
2023-11-18T22:57:54.441Z,70.60
2023-11-18T23:00:32.858Z,70.60
2023-11-18T23:03:00.938Z,70.60
2023-11-18T23:05:30.161Z,70.60
2023-11-18T23:07:58.356Z,70.60
2023-11-18T23:10:26.800Z,70.60
2023-11-18T23:12:55.745Z,70.60
2023-11-18T23:15:25.209Z,70.70
2023-11-18T23:17:53.518Z,70.60
2023-11-18T23:20:22.332Z,70.70
2023-11-18T23:22:52.450Z,70.70
2023-11-18T23:25:23.316Z,70.70
2023-11-18T23:28:00.934Z,70.70
2023-11-18T23:30:29.685Z,70.70
2023-11-18T23:32:57.786Z,70.70
2023-11-18T23:35:25.575Z,70.70
2023-11-18T23:37:55.080Z,70.70
2023-11-18T23:40:23.784Z,70.70
2023-11-18T23:42:51.837Z,70.80
2023-11-18T23:45:20.606Z,70.80
2023-11-18T23:47:51.977Z,70.80
2023-11-18T23:50:20.288Z,70.80
2023-11-18T23:52:48.072Z,70.80
2023-11-18T23:55:17.227Z,70.90
2023-11-18T23:57:46.002Z,70.80
